Time;durP1;ratioP1;P1;durP2;ratioP2;P2;SDS_P1;SDS_P2;PMS_P1;PMS_P2;Temp;Humidity;BMP_temperature;BMP_pressure;BME280_temperature;BME280_humidity;BME280_pressure;Samples;Min_cycle;Max_cycle;Signal;HPM_P1;HPM_P2
2021/04/28 00:01:16;;;;;;;;;;;;;;;20.99;42.45;100750.28;5096508;28;974;-47
2021/04/28 00:03:41;;;;;;;;;;;;;;;21.04;42.43;100757.66;5096663;28;993;-49
2021/04/28 00:06:07;;;;;;;;;;;;;;;20.79;43.26;100756.16;5096896;28;850;-47
2021/04/28 00:08:32;;;;;;;;;;;;;;;20.89;42.93;100728.34;5097036;28;735;-49
2021/04/28 00:10:58;;;;;;;;;;;;;;;20.93;43.00;100723.88;5096704;28;748;-49
2021/04/28 00:13:23;;;;;;;;;;;;;;;21.11;42.44;100719.38;5096661;28;786;-49
2021/04/28 00:15:50;;;;;;;;;;;;;;;21.20;42.01;100731.34;5096524;28;1144;-50
2021/04/28 00:18:15;;;;;;;;;;;;;;;20.87;42.88;100747.16;5096557;28;998;-49
2021/04/28 00:20:41;;;;;;;;;;;;;;;20.90;42.83;100757.66;5096329;28;1917;-49
2021/04/28 00:23:07;;;;;;;;;;;;;;;21.08;42.46;100763.41;5096765;28;870;-51
2021/04/28 00:25:33;;;;;;;;;;;;;;;21.03;42.55;100758.78;5096691;28;982;-49
2021/04/28 00:27:58;;;;;;;;;;;;;;;20.98;42.89;100769.94;5096513;28;790;-48
2021/04/28 00:30:24;;;;;;;;;;;;;;;20.77;43.23;100781.34;5096527;28;787;-52
2021/04/28 00:32:50;;;;;;;;;;;;;;;20.73;43.22;100785.81;5094454;28;958;-50
2021/04/28 00:35:15;;;;;;;;;;;;;;;20.72;43.46;100770.38;5076307;28;885;-49
2021/04/28 00:37:41;;;;;;;;;;;;;;;20.50;43.69;100768.22;5076585;28;752;-47
2021/04/28 00:40:10;;;;;;;;;;;;;;;20.61;43.61;100771.66;5076285;28;1913;-51
2021/04/28 00:42:36;;;;;;;;;;;;;;;20.91;42.86;100769.50;5076157;28;807;-51
2021/04/28 00:45:01;;;;;;;;;;;;;;;20.95;42.84;100765.03;5076419;28;787;-50
2021/04/28 00:47:27;;;;;;;;;;;;;;;20.97;42.65;100769.13;5091631;28;1744;-51
2021/04/28 00:49:53;;;;;;;;;;;;;;;20.99;42.76;100777.09;5078129;28;1253;-48
2021/04/28 00:52:19;;;;;;;;;;;;;;;21.09;42.57;100765.84;5078189;28;1305;-47
2021/04/28 00:54:44;;;;;;;;;;;;;;;20.88;42.95;100776.47;5078951;28;786;-49
2021/04/28 00:57:10;;;;;;;;;;;;;;;20.87;42.95;100769.28;5078301;28;743;-49
2021/04/28 00:59:36;;;;;;;;;;;;;;;20.80;43.11;100774.38;5096446;28;1992;-49
2021/04/28 01:02:02;;;;;;;;;;;;;;;20.87;42.81;100758.22;5077810;28;1002;-51
2021/04/28 01:04:35;;;;;;;;;;;;;;;20.83;42.93;100755.28;5078335;28;1233;-49
2021/04/28 01:07:01;;;;;;;;;;;;;;;20.83;42.78;100763.56;5096269;28;783;-47
2021/04/28 01:09:26;;;;;;;;;;;;;;;20.96;42.72;100750.88;5080653;28;813;-50
2021/04/28 01:11:52;;;;;;;;;;;;;;;20.84;42.95;100754.13;5065225;28;1426;-52
2021/04/28 01:14:17;;;;;;;;;;;;;;;20.95;42.78;100748.44;5065386;28;1269;-49
2021/04/28 01:16:43;;;;;;;;;;;;;;;20.88;42.94;100742.47;5081606;28;1122;-49
2021/04/28 01:19:08;;;;;;;;;;;;;;;20.94;42.95;100744.03;5081244;28;1913;-49
2021/04/28 01:21:41;;;;;;;;;;;;;;;20.95;42.51;100740.94;5082246;28;1418;-47
2021/04/28 01:24:07;;;;;;;;;;;;;;;20.87;42.85;100741.66;5082028;28;1146;-49
2021/04/28 01:26:32;;;;;;;;;;;;;;;21.09;42.36;100740.16;5081100;28;966;-51
2021/04/28 01:28:59;;;;;;;;;;;;;;;21.38;41.82;100731.59;5081863;28;1193;-48
2021/04/28 01:31:25;;;;;;;;;;;;;;;21.06;42.31;100730.53;5081053;28;1240;-48
2021/04/28 01:33:53;;;;;;;;;;;;;;;20.74;43.24;100734.97;5088960;28;1169;-49
2021/04/28 01:36:19;;;;;;;;;;;;;;;20.83;42.90;100729.56;5061592;28;832;-52
2021/04/28 01:38:46;;;;;;;;;;;;;;;20.95;42.70;100721.59;5061289;28;785;-48
2021/04/28 01:41:11;;;;;;;;;;;;;;;20.94;42.70;100716.38;5078836;28;1961;-48
2021/04/28 01:43:40;;;;;;;;;;;;;;;20.51;43.54;100723.72;5045228;28;1868;-48
2021/04/28 01:46:06;;;;;;;;;;;;;;;21.08;42.54;100735.75;5083553;28;1614;-49
2021/04/28 01:48:31;;;;;;;;;;;;;;;20.74;42.98;100747.97;5077250;28;1336;-47
2021/04/28 01:50:59;;;;;;;;;;;;;;;20.68;43.39;100750.00;5061669;28;1136;-47
2021/04/28 01:53:24;;;;;;;;;;;;;;;20.61;43.36;100749.53;5061182;28;764;-48
2021/04/28 01:55:50;;;;;;;;;;;;;;;20.90;42.83;100741.06;5061005;28;792;-47
2021/04/28 01:58:34;;;;;;;;;;;;;;;20.78;43.14;100749.00;5079021;28;590;-48
2021/04/28 02:01:07;;;;;;;;;;;;;;;20.79;42.89;100751.47;5060681;28;1910;-48
2021/04/28 02:03:34;;;;;;;;;;;;;;;20.64;43.23;100748.94;5079979;28;1459;-46
2021/04/28 02:06:00;;;;;;;;;;;;;;;20.84;43.02;100743.06;5080713;28;935;-49
2021/04/28 02:08:25;;;;;;;;;;;;;;;20.99;42.42;100741.97;5098823;28;764;-50
2021/04/28 02:10:51;;;;;;;;;;;;;;;20.73;43.05;100747.13;5081167;28;980;-51
2021/04/28 02:13:18;;;;;;;;;;;;;;;20.63;43.27;100741.75;5080821;28;1275;-46
2021/04/28 02:15:46;;;;;;;;;;;;;;;20.83;43.00;100727.63;5080723;28;1321;-47
2021/04/28 02:18:13;;;;;;;;;;;;;;;20.79;43.02;100728.53;5064011;28;1224;-49
2021/04/28 02:20:43;;;;;;;;;;;;;;;20.67;43.19;100729.00;5080377;28;1906;-47
2021/04/28 02:23:28;;;;;;;;;;;;;;;20.75;43.23;100739.38;5098431;28;1142;-47
2021/04/28 02:25:57;;;;;;;;;;;;;;;21.10;42.24;100748.16;5080888;28;1181;-48
2021/04/28 02:28:23;;;;;;;;;;;;;;;20.82;42.84;100755.56;5098644;28;779;-49
2021/04/28 02:30:58;;;;;;;;;;;;;;;20.74;43.01;100759.84;5080394;28;1267;-48
2021/04/28 02:33:23;;;;;;;;;;;;;;;20.83;42.91;100763.56;5091654;28;966;-49
2021/04/28 02:36:09;;;;;;;;;;;;;;;20.98;42.37;100769.94;5056860;28;1105;-51
2021/04/28 02:38:57;;;;;;;;;;;;;;;20.85;42.72;100768.78;5062437;28;1981;-49
2021/04/28 02:41:37;;;;;;;;;;;;;;;21.00;42.64;100762.97;5078041;28;827;-48
2021/04/28 02:44:03;;;;;;;;;;;;;;;20.84;42.73;100772.66;5078136;28;815;-49
2021/04/28 02:46:37;;;;;;;;;;;;;;;21.02;42.67;100784.78;5068666;28;1603;-48
2021/04/28 02:49:03;;;;;;;;;;;;;;;20.70;43.08;100780.91;5098777;28;746;-49
2021/04/28 02:51:35;;;;;;;;;;;;;;;20.73;43.11;100780.28;5080765;28;660;-49
2021/04/28 02:54:04;;;;;;;;;;;;;;;20.73;43.16;100772.00;5080291;28;1275;-50
2021/04/28 02:56:31;;;;;;;;;;;;;;;21.02;42.41;100768.22;5079841;28;1216;-49
2021/04/28 02:58:58;;;;;;;;;;;;;;;20.79;43.10;100765.28;5079924;28;1914;-47
2021/04/28 03:01:25;;;;;;;;;;;;;;;20.84;42.78;100759.66;5081331;28;989;-49
2021/04/28 03:03:51;;;;;;;;;;;;;;;21.01;42.42;100761.03;5118231;28;766;-48
2021/04/28 03:06:29;;;;;;;;;;;;;;;20.95;42.79;100771.34;5118163;28;775;-48
2021/04/28 03:08:58;;;;;;;;;;;;;;;20.94;42.86;100768.91;5100746;28;783;-49
2021/04/28 03:11:24;;;;;;;;;;;;;;;20.74;43.30;100770.88;5117923;28;800;-50
2021/04/28 03:13:51;;;;;;;;;;;;;;;20.82;43.23;100767.44;5083204;28;1225;-48
2021/04/28 03:16:17;;;;;;;;;;;;;;;20.88;42.89;100767.34;5117916;28;958;-52
2021/04/28 03:18:43;;;;;;;;;;;;;;;20.99;42.59;100771.59;5100299;28;1097;-51
2021/04/28 03:21:09;;;;;;;;;;;;;;;21.01;42.70;100774.84;5081164;28;1983;-48
2021/04/28 03:23:38;;;;;;;;;;;;;;;21.03;42.80;100778.16;5080038;28;783;-46
2021/04/28 03:26:04;;;;;;;;;;;;;;;21.24;42.22;100774.97;5062902;28;1161;-47
2021/04/28 03:28:30;;;;;;;;;;;;;;;21.28;42.00;100787.06;5062883;28;1201;-48
2021/04/28 03:30:56;;;;;;;;;;;;;;;21.42;41.70;100790.69;5096919;28;816;-53
2021/04/28 03:33:22;;;;;;;;;;;;;;;21.46;41.52;100780.66;5072547;28;970;-50
2021/04/28 03:35:48;;;;;;;;;;;;;;;21.02;42.57;100782.84;5077213;28;689;-50
2021/04/28 03:38:29;;;;;;;;;;;;;;;21.04;42.49;100796.34;5077005;28;614;-48
2021/04/28 03:40:57;;;;;;;;;;;;;;;21.16;42.23;100799.44;5058675;28;2001;-48
2021/04/28 03:43:22;;;;;;;;;;;;;;;21.17;42.13;100812.16;5042102;28;1357;-47
2021/04/28 03:45:50;;;;;;;;;;;;;;;20.96;42.70;100810.91;5079182;28;1626;-48
2021/04/28 03:48:26;;;;;;;;;;;;;;;20.66;43.61;100810.22;5095613;28;1288;-50
2021/04/28 03:50:51;;;;;;;;;;;;;;;21.10;42.63;100808.97;5096969;28;767;-54
2021/04/28 03:53:17;;;;;;;;;;;;;;;21.29;41.94;100800.59;5079353;28;1208;-52
2021/04/28 03:55:52;;;;;;;;;;;;;;;21.13;42.32;100800.06;5096758;28;747;-54
2021/04/28 03:58:18;;;;;;;;;;;;;;;20.91;42.96;100810.97;5078149;28;1126;-54
2021/04/28 04:00:46;;;;;;;;;;;;;;;20.89;43.09;100810.44;5078585;28;1914;-52
2021/04/28 04:03:29;;;;;;;;;;;;;;;21.00;42.58;100806.41;5078144;28;1409;-54
2021/04/28 04:06:26;;;;;;;;;;;;;;;21.20;42.41;100783.91;5073567;28;1077;-54
2021/04/28 04:09:27;;;;;;;;;;;;;;;21.24;42.06;100800.72;5054160;28;1114;-53
2021/04/28 04:11:54;;;;;;;;;;;;;;;21.32;42.11;100810.22;5070250;28;1185;-51
2021/04/28 04:14:23;;;;;;;;;;;;;;;21.08;42.54;100819.50;5096645;28;1114;-49
2021/04/28 04:16:51;;;;;;;;;;;;;;;21.16;42.48;100838.16;5084382;28;1419;-50
2021/04/28 04:19:17;;;;;;;;;;;;;;;21.14;42.50;100829.38;5117196;28;1905;-51
2021/04/28 04:22:00;;;;;;;;;;;;;;;21.10;42.62;100839.38;5098651;28;1104;-57
2021/04/28 04:24:44;;;;;;;;;;;;;;;21.23;42.11;100845.28;5116838;28;609;-46
2021/04/28 04:27:11;;;;;;;;;;;;;;;21.30;42.12;100848.44;5099055;28;862;-57
2021/04/28 04:29:52;;;;;;;;;;;;;;;21.16;42.19;100854.75;5098983;28;930;-51
2021/04/28 04:32:37;;;;;;;;;;;;;;;20.98;42.85;100847.34;5084687;28;1137;-54
2021/04/28 04:35:22;;;;;;;;;;;;;;;21.28;41.96;100839.63;5096511;28;657;-54
2021/04/28 04:38:05;;;;;;;;;;;;;;;21.34;42.18;100850.31;5095535;28;1196;-50
2021/04/28 04:40:51;;;;;;;;;;;;;;;20.97;42.63;100849.28;5095833;28;1890;-49
2021/04/28 04:43:34;;;;;;;;;;;;;;;20.91;43.25;100846.91;5081429;28;1388;-56
2021/04/28 04:46:09;;;;;;;;;;;;;;;21.14;42.30;100840.44;5100234;28;1673;-51
2021/04/28 04:48:34;;;;;;;;;;;;;;;20.95;42.86;100836.88;5100012;28;947;-49
2021/04/28 04:51:00;;;;;;;;;;;;;;;20.70;43.43;100835.34;5100352;28;791;-55
2021/04/28 04:53:25;;;;;;;;;;;;;;;20.66;43.50;100851.66;5099996;28;814;-47
2021/04/28 04:55:51;;;;;;;;;;;;;;;20.92;42.92;100843.84;5100611;28;858;-45
2021/04/28 04:58:16;;;;;;;;;;;;;;;21.17;42.45;100841.78;5100495;28;787;-48
2021/04/28 05:00:42;;;;;;;;;;;;;;;21.12;42.30;100839.09;5100331;28;1975;-49
2021/04/28 05:03:07;;;;;;;;;;;;;;;21.07;42.77;100853.00;5099913;28;1013;-49
2021/04/28 05:05:33;;;;;;;;;;;;;;;20.77;43.23;100858.72;5100727;28;721;-52
2021/04/28 05:07:58;;;;;;;;;;;;;;;20.66;43.55;100851.66;5099798;28;764;-51
2021/04/28 05:10:24;;;;;;;;;;;;;;;20.95;42.93;100854.28;5100033;28;759;-51
2021/04/28 05:12:49;;;;;;;;;;;;;;;21.15;42.39;100858.66;5100019;28;763;-53
2021/04/28 05:15:15;;;;;;;;;;;;;;;21.02;42.77;100860.25;5099683;28;1007;-50
2021/04/28 05:17:41;;;;;;;;;;;;;;;21.02;42.61;100859.44;5099415;28;946;-49
2021/04/28 05:20:06;;;;;;;;;;;;;;;20.96;42.78;100866.19;5099908;28;1914;-51
2021/04/28 05:22:32;;;;;;;;;;;;;;;21.05;42.53;100864.34;5099732;28;779;-52
2021/04/28 05:25:17;;;;;;;;;;;;;;;21.24;42.24;100860.72;5099581;28;1354;-52
2021/04/28 05:27:43;;;;;;;;;;;;;;;21.01;42.81;100852.25;5099571;28;760;-48
2021/04/28 05:30:09;;;;;;;;;;;;;;;20.92;42.87;100846.59;5099584;28;807;-54
2021/04/28 05:32:34;;;;;;;;;;;;;;;21.12;42.49;100859.25;5064267;28;982;-51
2021/04/28 05:35:00;;;;;;;;;;;;;;;21.16;42.32;100871.34;5079235;28;1189;-54
2021/04/28 05:37:25;;;;;;;;;;;;;;;20.98;42.70;100873.03;5079512;28;740;-49
2021/04/28 05:39:51;;;;;;;;;;;;;;;20.92;42.86;100870.66;5079118;28;1969;-53
2021/04/28 05:42:16;;;;;;;;;;;;;;;20.99;42.61;100873.88;5078874;28;807;-49
2021/04/28 05:44:42;;;;;;;;;;;;;;;21.02;42.66;100873.25;5079445;28;803;-47
2021/04/28 05:47:07;;;;;;;;;;;;;;;20.81;43.02;100875.53;5091745;28;1688;-54
2021/04/28 05:49:33;;;;;;;;;;;;;;;20.73;43.26;100874.25;5099155;28;811;-55
2021/04/28 05:51:58;;;;;;;;;;;;;;;20.97;42.67;100860.34;5099184;28;768;-53
2021/04/28 05:54:24;;;;;;;;;;;;;;;21.01;42.82;100857.78;5098344;28;811;-47
2021/04/28 05:56:49;;;;;;;;;;;;;;;20.73;43.17;100857.66;5099387;28;850;-52
2021/04/28 05:59:14;;;;;;;;;;;;;;;20.97;42.79;100857.59;5099118;28;1972;-47
2021/04/28 06:01:40;;;;;;;;;;;;;;;21.17;42.19;100845.34;5098602;28;969;-50
2021/04/28 06:04:06;;;;;;;;;;;;;;;20.98;42.86;100848.16;5098949;28;764;-47
2021/04/28 06:06:31;;;;;;;;;;;;;;;20.86;43.03;100856.09;5099005;28;763;-46
2021/04/28 06:08:56;;;;;;;;;;;;;;;20.81;43.06;100859.75;5098749;28;810;-48
2021/04/28 06:11:22;;;;;;;;;;;;;;;21.65;41.72;100857.25;5098725;28;731;-56
2021/04/28 06:13:48;;;;;;;;;;;;;;;21.80;41.12;100856.13;5099141;28;1031;-45
2021/04/28 06:16:16;;;;;;;;;;;;;;;21.70;41.24;100851.63;5098393;28;990;-53
2021/04/28 06:18:42;;;;;;;;;;;;;;;21.77;41.28;100851.19;5098491;28;994;-50
2021/04/28 06:21:07;;;;;;;;;;;;;;;21.67;41.24;100849.44;5098514;28;1906;-55
2021/04/28 06:23:33;;;;;;;;;;;;;;;21.49;41.70;100851.13;5080330;28;815;-56
2021/04/28 06:25:58;;;;;;;;;;;;;;;21.33;42.11;100853.38;5098913;28;823;-56
2021/04/28 06:28:24;;;;;;;;;;;;;;;20.76;43.48;100859.00;5098665;28;823;-54
2021/04/28 06:30:49;;;;;;;;;;;;;;;21.38;41.84;100850.53;5098886;28;796;-57
2021/04/28 06:33:15;;;;;;;;;;;;;;;21.51;41.59;100841.41;5092566;28;958;-53
2021/04/28 06:35:40;;;;;;;;;;;;;;;21.33;42.25;100845.88;5078086;28;744;-52
2021/04/28 06:38:05;;;;;;;;;;;;;;;21.23;42.17;100848.03;5078294;28;779;-51
2021/04/28 06:40:31;;;;;;;;;;;;;;;21.20;42.50;100849.44;5077895;28;1923;-55
2021/04/28 06:42:56;;;;;;;;;;;;;;;21.52;41.40;100851.38;5077998;28;764;-61
2021/04/28 06:45:22;;;;;;;;;;;;;;;21.42;41.90;100850.72;5077810;28;772;-57
2021/04/28 06:47:47;;;;;;;;;;;;;;;20.97;42.99;100852.06;5096058;28;1724;-54
2021/04/28 06:50:13;;;;;;;;;;;;;;;21.14;42.54;100862.56;5097927;28;783;-54
2021/04/28 06:52:42;;;;;;;;;;;;;;;20.93;43.19;100866.75;5098009;28;791;-54
2021/04/28 06:55:08;;;;;;;;;;;;;;;21.10;42.78;100867.03;5098225;28;728;-56
2021/04/28 06:57:34;;;;;;;;;;;;;;;21.25;42.45;100874.25;5098114;28;731;-52
2021/04/28 06:59:59;;;;;;;;;;;;;;;21.36;42.18;100874.88;5097869;28;1909;-57
2021/04/28 07:02:25;;;;;;;;;;;;;;;21.24;42.28;100874.53;5079406;28;1286;-50
2021/04/28 07:04:50;;;;;;;;;;;;;;;20.90;43.12;100886.72;5096914;28;1402;-48
2021/04/28 07:07:16;;;;;;;;;;;;;;;21.02;42.89;100889.84;5096743;28;739;-54
2021/04/28 07:09:41;;;;;;;;;;;;;;;21.26;42.41;100888.91;5097758;28;842;-57
2021/04/28 07:12:07;;;;;;;;;;;;;;;21.23;42.37;100893.09;5097525;28;795;-50
2021/04/28 07:14:32;;;;;;;;;;;;;;;21.00;42.88;100901.22;5097735;28;1230;-52
2021/04/28 07:16:57;;;;;;;;;;;;;;;20.83;43.09;100907.28;5097127;28;946;-50
2021/04/28 07:19:23;;;;;;;;;;;;;;;21.19;42.48;100898.38;5097228;28;1963;-56
2021/04/28 07:21:51;;;;;;;;;;;;;;;21.53;41.71;100913.91;5097630;28;802;-57
2021/04/28 07:24:16;;;;;;;;;;;;;;;21.55;41.36;100910.03;5097643;28;839;-52
2021/04/28 07:26:41;;;;;;;;;;;;;;;21.68;41.32;100914.75;5097408;28;735;-55
2021/04/28 07:29:07;;;;;;;;;;;;;;;21.76;41.06;100905.75;5097274;28;806;-54
2021/04/28 07:31:33;;;;;;;;;;;;;;;21.88;40.73;100905.22;5096693;28;1029;-60
2021/04/28 07:33:58;;;;;;;;;;;;;;;21.41;41.65;100910.75;5085990;28;1091;-58
2021/04/28 07:36:23;;;;;;;;;;;;;;;21.35;42.05;100906.47;5076983;28;788;-53
2021/04/28 07:38:49;;;;;;;;;;;;;;;21.09;42.47;100915.16;5076756;28;807;-57
2021/04/28 07:41:14;;;;;;;;;;;;;;;20.94;43.14;100896.84;5076746;28;1918;-60
2021/04/28 07:43:40;;;;;;;;;;;;;;;20.92;43.19;100920.41;5076871;28;803;-59
2021/04/28 07:46:05;;;;;;;;;;;;;;;21.30;42.27;100915.63;5080965;28;1591;-59
2021/04/28 07:48:31;;;;;;;;;;;;;;;21.51;41.69;100920.84;5096633;28;950;-50
2021/04/28 07:50:56;;;;;;;;;;;;;;;21.50;41.56;100917.25;5096906;28;763;-59
2021/04/28 07:53:22;;;;;;;;;;;;;;;21.23;42.12;100908.88;5097456;28;799;-50
2021/04/28 07:55:47;;;;;;;;;;;;;;;21.27;42.20;100920.97;5097050;28;890;-50
2021/04/28 07:58:15;;;;;;;;;;;;;;;21.36;42.06;100919.97;5096722;28;755;-52
2021/04/28 08:00:41;;;;;;;;;;;;;;;21.18;42.43;100923.59;5078985;28;1974;-51
2021/04/28 08:03:06;;;;;;;;;;;;;;;21.25;42.35;100923.22;5096499;28;1009;-51
2021/04/28 08:05:32;;;;;;;;;;;;;;;21.30;42.12;100923.13;5096597;28;851;-54
2021/04/28 08:07:58;;;;;;;;;;;;;;;21.34;42.10;100919.44;5096829;28;751;-52
2021/04/28 08:10:23;;;;;;;;;;;;;;;21.26;42.34;100916.56;5096637;28;739;-50
2021/04/28 08:12:49;;;;;;;;;;;;;;;21.31;41.86;100910.94;5078333;28;785;-57
2021/04/28 08:15:14;;;;;;;;;;;;;;;21.29;42.09;100913.19;5096529;28;1047;-61
2021/04/28 08:17:40;;;;;;;;;;;;;;;21.29;42.19;100913.19;5095920;28;971;-58
2021/04/28 08:20:05;;;;;;;;;;;;;;;21.42;41.94;100914.34;5096568;28;1911;-48
2021/04/28 08:22:33;;;;;;;;;;;;;;;21.82;41.05;100912.00;5096973;28;759;-57
2021/04/28 08:24:59;;;;;;;;;;;;;;;21.58;41.72;100912.16;5096511;28;759;-56
2021/04/28 08:27:24;;;;;;;;;;;;;;;21.77;41.18;100910.16;5096725;28;814;-49
2021/04/28 08:29:49;;;;;;;;;;;;;;;21.74;41.25;100907.16;5096540;28;760;-56
2021/04/28 08:32:17;;;;;;;;;;;;;;;21.86;40.98;100894.47;5096077;28;1021;-45
2021/04/28 08:34:42;;;;;;;;;;;;;;;22.04;40.43;100905.75;5078897;28;1171;-46
2021/04/28 08:37:08;;;;;;;;;;;;;;;21.88;40.74;100900.53;5076269;28;752;-47
2021/04/28 08:39:33;;;;;;;;;;;;;;;22.17;40.14;100901.34;5075953;28;1976;-53
2021/04/28 08:41:58;;;;;;;;;;;;;;;22.03;40.61;100893.88;5076539;28;800;-56
2021/04/28 08:44:24;;;;;;;;;;;;;;;22.21;40.33;100889.31;5076279;28;744;-51
2021/04/28 08:46:50;;;;;;;;;;;;;;;22.14;40.27;100886.16;5085949;28;1689;-48
2021/04/28 08:49:16;;;;;;;;;;;;;;;22.45;39.64;100879.97;5096335;28;747;-51
2021/04/28 08:51:41;;;;;;;;;;;;;;;22.68;39.23;100880.03;5078088;28;788;-56
2021/04/28 08:54:07;;;;;;;;;;;;;;;22.61;39.38;100885.19;5096275;28;774;-60
2021/04/28 08:56:32;;;;;;;;;;;;;;;22.10;40.68;100878.78;5096327;28;918;-55
2021/04/28 08:59:03;;;;;;;;;;;;;;;22.04;40.83;100891.91;5096552;28;751;-53
2021/04/28 09:01:30;;;;;;;;;;;;;;;21.52;42.15;100889.31;5095753;28;1894;-56
2021/04/28 09:03:56;;;;;;;;;;;;;;;22.06;42.15;100884.09;5096289;28;743;-56
2021/04/28 09:06:25;;;;;;;;;;;;;;;21.96;41.49;100884.31;5078444;28;1375;-57
2021/04/28 09:08:50;;;;;;;;;;;;;;;22.17;41.10;100879.19;5096460;28;787;-55
2021/04/28 09:11:32;;;;;;;;;;;;;;;21.67;42.41;100885.41;5077422;28;1204;-48
2021/04/28 09:14:11;;;;;;;;;;;;;;;21.28;43.40;100883.88;5095793;28;1035;-45
2021/04/28 09:16:37;;;;;;;;;;;;;;;21.26;43.14;100883.38;5099219;28;994;-45
2021/04/28 09:19:18;;;;;;;;;;;;;;;21.90;42.04;100889.13;5098519;28;1197;-52
2021/04/28 09:22:21;;;;;;;;;;;;;;;22.21;41.01;100883.78;5053670;28;1192;-48
2021/04/28 09:25:06;;;;;;;;;;;;;;;22.70;39.99;100884.13;5111784;28;1040;-51
2021/04/28 09:27:52;;;;;;;;;;;;;;;22.15;41.50;100873.94;5105051;28;1067;-48
2021/04/28 09:30:44;;;;;;;;;;;;;;;22.29;41.12;100873.94;5100404;28;1376;-48
2021/04/28 09:33:11;;;;;;;;;;;;;;;22.35;40.96;100872.72;5114947;28;1012;-50
2021/04/28 09:35:36;;;;;;;;;;;;;;;22.13;41.19;100870.69;5099782;28;800;-45
2021/04/28 09:38:02;;;;;;;;;;;;;;;21.82;41.92;100857.44;5099646;28;759;-56
2021/04/28 09:40:40;;;;;;;;;;;;;;;21.53;42.73;100866.88;5099211;28;1988;-51
2021/04/28 09:43:05;;;;;;;;;;;;;;;21.73;42.30;100869.53;5099450;28;850;-49
2021/04/28 09:45:43;;;;;;;;;;;;;;;21.77;42.01;100865.88;5098846;28;965;-55
2021/04/28 09:48:16;;;;;;;;;;;;;;;21.85;41.77;100864.31;5094696;28;919;-47
2021/04/28 09:50:42;;;;;;;;;;;;;;;21.90;41.72;100860.66;5099236;28;783;-45
2021/04/28 09:53:07;;;;;;;;;;;;;;;21.88;41.78;100853.47;5099272;28;787;-45
2021/04/28 09:55:43;;;;;;;;;;;;;;;21.83;41.66;100856.31;5099384;28;764;-56
2021/04/28 09:58:12;;;;;;;;;;;;;;;21.81;41.66;100864.13;5099505;28;791;-54
2021/04/28 10:00:37;;;;;;;;;;;;;;;21.98;41.17;100857.97;5098726;28;1914;-45
2021/04/28 10:03:05;;;;;;;;;;;;;;;22.03;41.26;100865.34;5080602;28;1021;-46
2021/04/28 10:05:31;;;;;;;;;;;;;;;22.15;40.87;100853.75;5099043;28;480;-45
2021/04/28 10:08:18;;;;;;;;;;;;;;;22.00;41.25;100855.69;5098595;28;751;-48
2021/04/28 10:10:43;;;;;;;;;;;;;;;22.07;41.06;100860.81;5098719;28;874;-45
2021/04/28 10:13:09;;;;;;;;;;;;;;;22.17;40.72;100855.06;5098492;28;819;-47
2021/04/28 10:15:34;;;;;;;;;;;;;;;22.15;40.81;100857.34;5098337;28;1031;-45
2021/04/28 10:18:01;;;;;;;;;;;;;;;22.31;40.37;100857.00;5080053;28;1030;-50
2021/04/28 10:20:26;;;;;;;;;;;;;;;22.33;40.63;100846.41;5098772;28;1979;-46
2021/04/28 10:22:52;;;;;;;;;;;;;;;22.06;41.09;100848.09;5080779;28;827;-58
2021/04/28 10:25:17;;;;;;;;;;;;;;;22.10;41.07;100848.31;5098071;28;887;-53
2021/04/28 10:27:43;;;;;;;;;;;;;;;22.10;41.19;100849.13;5080739;28;1186;-47
2021/04/28 10:30:09;;;;;;;;;;;;;;;22.18;41.07;100850.38;5080217;28;1347;-58
2021/04/28 10:32:35;;;;;;;;;;;;;;;22.19;41.02;100844.50;5097987;28;958;-57
2021/04/28 10:35:07;;;;;;;;;;;;;;;22.21;41.01;100845.00;5078358;28;1158;-50
2021/04/28 10:37:34;;;;;;;;;;;;;;;22.21;41.15;100846.97;5059406;28;843;-52
2021/04/28 10:39:59;;;;;;;;;;;;;;;22.30;40.90;100833.19;5059947;28;1914;-52
2021/04/28 10:42:26;;;;;;;;;;;;;;;22.58;40.37;100828.44;5077977;28;775;-56
2021/04/28 10:44:51;;;;;;;;;;;;;;;22.81;40.03;100826.50;5078309;28;756;-44
2021/04/28 10:47:24;;;;;;;;;;;;;;;22.78;40.17;100823.53;5091738;28;1637;-56
2021/04/28 10:49:58;;;;;;;;;;;;;;;22.34;40.99;100828.69;5097989;28;779;-56
2021/04/28 10:52:28;;;;;;;;;;;;;;;22.29;41.11;100828.81;5098039;28;768;-54
2021/04/28 10:54:53;;;;;;;;;;;;;;;22.18;41.73;100831.78;5098168;28;815;-54
2021/04/28 10:57:28;;;;;;;;;;;;;;;22.27;41.43;100829.09;5097855;28;800;-49
2021/04/28 10:59:56;;;;;;;;;;;;;;;22.51;40.90;100825.25;5079686;28;1974;-47
2021/04/28 11:02:21;;;;;;;;;;;;;;;22.59;40.70;100824.53;5097470;28;1065;-50
2021/04/28 11:04:47;;;;;;;;;;;;;;;22.59;40.71;100826.47;5079573;28;1448;-56
2021/04/28 11:07:15;;;;;;;;;;;;;;;22.49;41.03;100827.53;5097821;28;799;-43
2021/04/28 11:09:40;;;;;;;;;;;;;;;22.61;40.97;100838.06;5098246;28;772;-57
2021/04/28 11:12:06;;;;;;;;;;;;;;;22.79;40.44;100831.53;5079916;28;1369;-51
2021/04/28 11:14:31;;;;;;;;;;;;;;;22.87;40.49;100835.50;5097615;28;1256;-54
2021/04/28 11:17:01;;;;;;;;;;;;;;;22.88;40.37;100831.59;5097359;28;942;-59
2021/04/28 11:19:27;;;;;;;;;;;;;;;21.72;43.00;100832.75;5097165;28;1914;-49
2021/04/28 11:22:06;;;;;;;;;;;;;;;21.98;42.26;100835.81;5097888;28;804;-57
2021/04/28 11:24:50;;;;;;;;;;;;;;;22.02;42.30;100834.06;5097496;28;751;-47
2021/04/28 11:27:51;;;;;;;;;;;;;;;22.43;41.39;100834.31;5097154;28;823;-47
2021/04/28 11:30:17;;;;;;;;;;;;;;;22.83;40.52;100827.00;5015398;28;1273;-52
2021/04/28 11:32:51;;;;;;;;;;;;;;;22.79;40.50;100828.78;5079449;28;978;-60
2021/04/28 11:35:16;;;;;;;;;;;;;;;22.02;42.44;100824.94;5059040;28;1228;-46
2021/04/28 11:37:42;;;;;;;;;;;;;;;21.59;43.36;100809.50;5059222;28;1354;-58
2021/04/28 11:40:08;;;;;;;;;;;;;;;21.81;43.16;100813.47;5058430;28;1905;-47
2021/04/28 11:42:33;;;;;;;;;;;;;;;22.19;42.05;100813.25;5077007;28;807;-51
2021/04/28 11:44:58;;;;;;;;;;;;;;;22.31;41.89;100809.91;5077267;28;792;-53
2021/04/28 11:47:25;;;;;;;;;;;;;;;22.53;41.38;100809.97;5091305;28;1570;-58
2021/04/28 11:49:53;;;;;;;;;;;;;;;21.94;42.42;100811.84;5097290;28;777;-58
2021/04/28 11:52:19;;;;;;;;;;;;;;;21.85;42.76;100815.34;5078765;28;961;-57
2021/04/28 11:54:45;;;;;;;;;;;;;;;22.11;42.18;100813.97;5078870;28;720;-48
2021/04/28 11:57:10;;;;;;;;;;;;;;;22.29;41.95;100817.72;5096955;28;894;-54
2021/04/28 11:59:37;;;;;;;;;;;;;;;22.76;40.94;100817.47;5096790;28;1980;-47
2021/04/28 12:02:09;;;;;;;;;;;;;;;22.27;41.90;100814.44;5096530;28;954;-57
2021/04/28 12:04:50;;;;;;;;;;;;;;;21.50;43.75;100828.72;5096923;28;791;-52
2021/04/28 12:07:16;;;;;;;;;;;;;;;21.10;44.65;100836.63;5096609;28;744;-57
2021/04/28 12:09:43;;;;;;;;;;;;;;;21.25;44.23;100812.59;5097372;28;783;-47
2021/04/28 12:12:09;;;;;;;;;;;;;;;21.60;43.27;100821.38;5097109;28;775;-46
2021/04/28 12:14:34;;;;;;;;;;;;;;;21.84;42.71;100813.69;5096420;28;1001;-45
2021/04/28 12:17:00;;;;;;;;;;;;;;;22.05;42.03;100810.50;5096244;28;950;-58
2021/04/28 12:19:25;;;;;;;;;;;;;;;22.03;42.09;100815.50;5096485;28;1914;-48
2021/04/28 12:22:00;;;;;;;;;;;;;;;21.73;42.71;100806.72;5096440;28;839;-58
2021/04/28 12:24:45;;;;;;;;;;;;;;;21.46;43.37;100797.25;5096694;28;807;-45
2021/04/28 12:27:12;;;;;;;;;;;;;;;21.05;44.56;100802.72;5096007;28;1098;-62
2021/04/28 12:29:41;;;;;;;;;;;;;;;21.18;44.11;100788.94;5096748;28;807;-46
2021/04/28 12:32:07;;;;;;;;;;;;;;;21.37;43.54;100796.31;5096190;28;962;-45
2021/04/28 12:34:33;;;;;;;;;;;;;;;21.54;43.15;100790.22;5062321;28;1202;-43
2021/04/28 12:37:13;;;;;;;;;;;;;;;21.35;43.58;100791.09;5076324;28;763;-54
2021/04/28 12:39:38;;;;;;;;;;;;;;;21.49;43.23;100791.09;5076055;28;1909;-49
2021/04/28 12:42:04;;;;;;;;;;;;;;;21.96;42.28;100798.50;5076210;28;728;-46
2021/04/28 12:44:29;;;;;;;;;;;;;;;22.17;41.84;100787.78;5076271;28;855;-58
2021/04/28 12:46:55;;;;;;;;;;;;;;;21.96;42.13;100804.03;5068388;28;1603;-59
2021/04/28 12:49:24;;;;;;;;;;;;;;;22.16;41.79;100797.22;5078116;28;728;-67
2021/04/28 12:51:50;;;;;;;;;;;;;;;22.21;41.81;100795.16;5096597;28;854;-62
2021/04/28 12:54:28;;;;;;;;;;;;;;;22.50;41.44;100791.22;5096222;28;834;-47
2021/04/28 12:56:54;;;;;;;;;;;;;;;22.50;41.18;100785.66;5096385;28;799;-61
2021/04/28 12:59:21;;;;;;;;;;;;;;;22.48;40.87;100782.41;5096160;28;1967;-53